Time;durP1;ratioP1;P1;durP2;ratioP2;P2;SDS_P1;SDS_P2;PMS_P1;PMS_P2;Temp;Humidity;BMP_temperature;BMP_pressure;BME280_temperature;BME280_humidity;BME280_pressure;Samples;Min_cycle;Max_cycle;Signal;HPM_P1;HPM_P2
2022/04/10 00:00:55;;;;;;;2.02;1.55;;;;;;;6.54;96.11;98265.39;1678529;84;20927;-67
2022/04/10 00:03:24;;;;;;;1.85;1.50;;;;;;;6.45;96.06;98258.33;1674806;83;21065;-68
2022/04/10 00:05:53;;;;;;;1.50;1.40;;;;;;;6.43;96.41;98270.91;1710906;83;20896;-69
2022/04/10 00:08:32;;;;;;;1.45;1.35;;;;;;;6.38;95.67;98266.17;1679613;84;20907;-69
2022/04/10 00:11:07;;;;;;;1.67;1.42;;;;;;;6.31;95.74;98272.69;1689855;83;21467;-69
2022/04/10 00:13:38;;;;;;;2.17;1.55;;;;;;;6.26;95.85;98281.25;1674173;83;20901;-69
2022/04/10 00:16:08;;;;;;;3.95;1.50;;;;;;;6.23;95.74;98280.53;1714676;83;20865;-69
2022/04/10 00:18:39;;;;;;;1.70;1.45;;;;;;;6.19;95.70;98274.11;1674074;84;20959;-69
2022/04/10 00:21:08;;;;;;;2.40;1.62;;;;;;;6.16;95.93;98276.66;1711274;83;21568;-70
2022/04/10 00:23:44;;;;;;;2.20;1.55;;;;;;;6.13;95.62;98278.10;1699709;83;21167;-70
2022/04/10 00:26:15;;;;;;;1.47;1.12;;;;;;;6.09;95.10;98274.96;1691080;83;21007;-69
2022/04/10 00:28:42;;;;;;;1.50;1.40;;;;;;;6.05;95.30;98288.98;1689231;83;21539;-68
2022/04/10 00:31:15;;;;;;;1.62;1.50;;;;;;;6.03;95.40;98295.30;1681702;84;20916;-68
2022/04/10 00:33:47;;;;;;;3.83;1.52;;;;;;;6.00;94.91;98301.37;1691779;83;21006;-68
2022/04/10 00:36:17;;;;;;;2.60;1.22;;;;;;;5.96;95.04;98307.45;1701745;83;21211;-68
2022/04/10 00:38:50;;;;;;;2.00;1.62;;;;;;;5.93;95.20;98307.28;1699001;83;20892;-68
2022/04/10 00:41:24;;;;;;;2.05;1.60;;;;;;;5.93;95.20;98307.28;1689065;83;20884;-68
2022/04/10 00:44:08;;;;;;;1.57;1.40;;;;;;;5.93;94.67;98311.37;1686906;83;20986;-68
2022/04/10 00:46:37;;;;;;;1.47;1.35;;;;;;;5.88;94.16;98315.00;1703547;83;20903;-70
2022/04/10 00:49:09;;;;;;;2.35;1.47;;;;;;;5.85;94.11;98320.28;1684815;83;21165;-69
2022/04/10 00:51:40;;;;;;;1.32;1.22;;;;;;;5.82;93.46;98334.52;1701773;83;21490;-69
2022/04/10 00:54:24;;;;;;;1.60;1.50;;;;;;;5.77;93.44;98342.86;1672200;83;20952;-68
2022/04/10 00:56:57;;;;;;;2.90;1.50;;;;;;;5.69;92.40;98359.39;1684047;83;21538;-69
2022/04/10 00:59:32;;;;;;;2.00;1.52;;;;;;;5.69;92.40;98359.39;1683337;83;20983;-69
2022/04/10 01:02:04;;;;;;;1.60;1.30;;;;;;;5.68;92.80;98363.80;1685465;83;21364;-69
2022/04/10 01:04:37;;;;;;;1.98;1.37;;;;;;;5.67;92.62;98346.66;1685922;83;20924;-69
2022/04/10 01:07:11;;;;;;;2.33;1.62;;;;;;;5.67;92.62;98346.66;1657362;84;20947;-70
2022/04/10 01:09:40;;;;;;;4.92;1.60;;;;;;;5.65;92.01;98361.14;1675981;85;28724;-70
2022/04/10 01:12:18;;;;;;;2.95;1.85;;;;;;;5.62;92.16;98363.13;1684541;83;20904;-70
2022/04/10 01:14:46;;;;;;;2.75;1.70;;;;;;;5.58;91.25;98364.86;1685325;83;21234;-69
2022/04/10 01:17:22;;;;;;;1.87;1.42;;;;;;;5.56;91.67;98361.64;1685758;84;21025;-70
2022/04/10 01:19:54;;;;;;;3.02;1.70;;;;;;;5.53;91.39;98354.09;1687842;83;21558;-70
2022/04/10 01:22:40;;;;;;;2.98;2.10;;;;;;;5.51;90.78;98352.25;1650198;84;21077;-70
2022/04/10 01:25:17;;;;;;;2.62;2.22;;;;;;;5.51;90.78;98352.25;1687436;83;20975;-70
2022/04/10 01:27:47;;;;;;;6.27;2.70;;;;;;;5.47;90.61;98347.98;1692448;83;21165;-69
2022/04/10 01:30:16;;;;;;;3.42;2.62;;;;;;;5.49;90.89;98351.75;1713300;83;21553;-70
2022/04/10 01:32:50;;;;;;;2.70;1.80;;;;;;;5.50;90.75;98357.44;1702181;83;20876;-70
2022/04/10 01:35:27;;;;;;;2.72;1.82;;;;;;;5.49;90.73;98362.64;1693992;83;20959;-70
2022/04/10 01:38:00;;;;;;;4.12;2.10;;;;;;;5.46;90.82;98369.51;1693227;83;20948;-69
2022/04/10 01:40:34;;;;;;;3.25;2.30;;;;;;;5.44;91.09;98379.09;1689611;83;21928;-69
2022/04/10 01:43:05;;;;;;;5.28;2.20;;;;;;;5.43;91.25;98387.82;1677796;83;21534;-68
2022/04/10 01:45:39;;;;;;;3.62;2.10;;;;;;;5.44;91.62;98388.62;1703139;83;21498;-69
2022/04/10 01:48:10;;;;;;;3.60;2.15;;;;;;;5.43;91.48;98391.91;1711675;83;20943;-69
2022/04/10 01:50:49;;;;;;;2.10;1.90;;;;;;;5.43;91.54;98397.91;1672636;83;20999;-70
2022/04/10 01:53:19;;;;;;;2.40;1.87;;;;;;;5.40;91.39;98400.69;1701847;83;21130;-70
2022/04/10 01:55:47;;;;;;;3.50;2.40;;;;;;;5.40;91.47;98410.77;1657418;84;20943;-70
2022/04/10 01:58:19;;;;;;;3.00;2.25;;;;;;;5.37;91.49;98412.19;1706886;83;21063;-68
2022/04/10 02:00:50;;;;;;;5.60;2.30;;;;;;;5.34;91.63;98411.45;1690900;83;20995;-67
2022/04/10 02:03:18;;;;;;;3.95;2.40;;;;;;;5.33;91.68;98414.48;1701685;83;20966;-67
2022/04/10 02:05:52;;;;;;;3.22;2.40;;;;;;;5.34;92.08;98408.72;1701901;83;21003;-68
2022/04/10 02:08:25;;;;;;;4.40;2.40;;;;;;;5.37;92.20;98412.75;1684576;83;25926;-68
2022/04/10 02:10:54;;;;;;;6.55;3.00;;;;;;;5.36;92.21;98408.42;1692473;83;20947;-69
2022/04/10 02:13:26;;;;;;;3.27;2.40;;;;;;;5.34;92.41;98407.92;1686145;83;20916;-69
2022/04/10 02:15:53;;;;;;;6.15;3.20;;;;;;;5.34;92.41;98407.92;1684597;83;21015;-69
2022/04/10 02:18:23;;;;;;;4.00;2.62;;;;;;;5.33;92.40;98417.20;1704287;83;21427;-69
2022/04/10 02:21:04;;;;;;;5.45;2.98;;;;;;;5.31;92.57;98417.50;1685712;83;20896;-69
2022/04/10 02:23:26;;;;;;;5.90;2.72;;;;;;;5.30;92.63;98419.42;1693373;83;20931;-69
2022/04/10 02:25:56;;;;;;;4.95;2.75;;;;;;;5.30;92.63;98419.42;1676938;83;20951;-69
2022/04/10 02:28:23;;;;;;;3.80;2.52;;;;;;;5.29;92.72;98417.81;1697134;83;21038;-69
2022/04/10 02:30:54;;;;;;;3.60;3.12;;;;;;;5.29;92.63;98430.06;1681113;83;21257;-71
2022/04/10 02:33:25;;;;;;;7.10;3.08;;;;;;;5.29;92.63;98430.06;1693276;83;21556;-69
2022/04/10 02:35:52;;;;;;;7.47;3.30;;;;;;;5.31;92.93;98427.03;1688296;83;21584;-69
2022/04/10 02:38:23;;;;;;;4.62;2.77;;;;;;;5.26;93.03;98423.87;1694145;83;20951;-70
2022/04/10 02:40:53;;;;;;;5.83;3.08;;;;;;;5.26;93.03;98423.87;1680548;83;21400;-70
2022/04/10 02:43:21;;;;;;;3.55;2.30;;;;;;;5.24;93.38;98413.85;1682501;83;21180;-70
2022/04/10 02:45:52;;;;;;;5.60;2.67;;;;;;;5.24;93.38;98413.85;1681161;83;20899;-69
2022/04/10 02:48:23;;;;;;;4.80;2.80;;;;;;;5.22;93.50;98411.99;1682095;83;20896;-69
2022/04/10 02:50:53;;;;;;;4.53;2.75;;;;;;;5.21;93.53;98425.34;1686874;83;21506;-68
2022/04/10 02:53:30;;;;;;;4.55;2.77;;;;;;;5.19;93.63;98414.00;1682222;83;21586;-68
2022/04/10 02:55:58;;;;;;;5.37;3.45;;;;;;;5.18;93.95;98420.55;1675916;84;21259;-67
2022/04/10 02:58:31;;;;;;;5.30;2.70;;;;;;;5.18;93.95;98420.55;1676252;83;20936;-66
2022/04/10 03:01:04;;;;;;;6.27;2.70;;;;;;;5.20;93.97;98421.02;1696139;83;21678;-67
2022/04/10 03:03:34;;;;;;;4.97;3.20;;;;;;;5.21;94.34;98424.55;1678758;83;20880;-67
2022/04/10 03:06:06;;;;;;;4.47;2.72;;;;;;;5.25;94.01;98436.42;1680712;83;21512;-66
2022/04/10 03:08:42;;;;;;;4.92;3.65;;;;;;;5.23;93.88;98439.45;1667556;83;20983;-67
2022/04/10 03:11:10;;;;;;;7.08;3.40;;;;;;;5.20;94.08;98442.78;1684509;83;20924;-66
2022/04/10 03:13:42;;;;;;;6.65;3.22;;;;;;;5.18;94.04;98441.52;1691054;83;21050;-66
2022/04/10 03:16:12;;;;;;;4.55;2.90;;;;;;;5.18;94.04;98441.52;1699140;83;21580;-66
2022/04/10 03:18:41;;;;;;;4.90;3.62;;;;;;;5.17;94.51;98447.52;1671116;83;20923;-66
2022/04/10 03:21:15;;;;;;;4.08;3.30;;;;;;;5.19;94.80;98448.01;1665894;83;21438;-67
2022/04/10 03:23:48;;;;;;;7.00;3.35;;;;;;;5.21;94.83;98453.92;1659843;85;21542;-67
2022/04/10 03:26:17;;;;;;;8.60;3.80;;;;;;;5.21;94.83;98453.92;1680717;82;21007;-67
2022/04/10 03:28:54;;;;;;;8.57;3.40;;;;;;;5.24;94.86;98453.86;1682745;83;21000;-67
2022/04/10 03:31:22;;;;;;;6.00;3.40;;;;;;;5.23;94.72;98459.05;1685499;83;20944;-67
2022/04/10 03:34:02;;;;;;;3.42;2.87;;;;;;;5.22;94.73;98473.21;1684289;83;21241;-67
2022/04/10 03:36:34;;;;;;;6.55;3.22;;;;;;;5.24;94.88;98473.71;1712595;83;20964;-70
2022/04/10 03:39:11;;;;;;;4.83;2.90;;;;;;;5.26;95.02;98471.48;1676649;85;20900;-68
2022/04/10 03:41:40;;;;;;;7.78;3.70;;;;;;;5.27;95.30;98482.63;1687718;83;20939;-69
2022/04/10 03:44:10;;;;;;;6.37;3.25;;;;;;;5.30;95.38;98481.20;1706599;83;20967;-69
2022/04/10 03:46:40;;;;;;;6.22;3.25;;;;;;;5.33;95.65;98485.23;1703445;83;21177;-68
2022/04/10 03:49:07;;;;;;;5.05;3.37;;;;;;;5.34;95.48;98482.76;1680776;83;20943;-68
2022/04/10 03:51:39;;;;;;;4.53;3.33;;;;;;;5.34;95.74;98482.20;1688498;83;21526;-68
2022/04/10 03:54:06;;;;;;;12.05;4.15;;;;;;;5.37;95.81;98482.14;1685679;83;20904;-68
2022/04/10 03:56:34;;;;;;;6.40;4.53;;;;;;;5.37;95.78;98483.50;1706735;83;20979;-67
2022/04/10 03:59:06;;;;;;;9.58;4.28;;;;;;;5.37;95.88;98479.42;1708855;83;21204;-67
2022/04/10 04:01:38;;;;;;;7.15;4.10;;;;;;;5.38;96.02;98481.03;1698589;83;20948;-67
2022/04/10 04:04:09;;;;;;;6.50;4.37;;;;;;;5.40;96.13;98484.25;1672189;84;21534;-67
2022/04/10 04:06:42;;;;;;;11.80;4.30;;;;;;;5.42;96.11;98491.00;1701333;83;20947;-68
2022/04/10 04:09:14;;;;;;;5.50;3.55;;;;;;;5.45;96.33;98490.94;1700356;83;20948;-68
2022/04/10 04:11:44;;;;;;;6.20;3.72;;;;;;;5.49;96.39;98497.38;1692754;83;21277;-67
2022/04/10 04:14:13;;;;;;;5.62;3.92;;;;;;;5.53;96.56;98511.43;1695657;83;21117;-67
2022/04/10 04:16:46;;;;;;;7.30;3.70;;;;;;;5.56;96.11;98508.09;1682161;83;20920;-67
2022/04/10 04:19:17;;;;;;;7.37;3.95;;;;;;;5.56;96.11;98508.09;1659719;83;20979;-67
2022/04/10 04:21:51;;;;;;;6.58;4.28;;;;;;;5.55;96.06;98511.12;1706469;83;20936;-68
2022/04/10 04:24:17;;;;;;;6.25;4.03;;;;;;;5.56;95.74;98518.98;1693508;83;21304;-68
2022/04/10 04:26:46;;;;;;;6.42;3.60;;;;;;;5.58;95.87;98528.20;1683710;83;20939;-68
2022/04/10 04:29:21;;;;;;;8.13;3.83;;;;;;;5.58;95.87;98528.20;1691279;83;21035;-67
2022/04/10 04:31:51;;;;;;;5.65;3.98;;;;;;;5.64;96.14;98548.76;1680869;83;20907;-67
2022/04/10 04:34:21;;;;;;;6.70;4.22;;;;;;;5.64;96.14;98548.76;1666270;83;20872;-68
2022/04/10 04:36:51;;;;;;;10.95;4.03;;;;;;;5.64;95.85;98544.67;1693340;83;21173;-67
2022/04/10 04:39:22;;;;;;;7.47;4.45;;;;;;;5.68;95.78;98545.67;1727376;81;20984;-67
2022/04/10 04:41:53;;;;;;;8.33;4.03;;;;;;;5.68;95.49;98547.03;1689976;83;21014;-67
2022/04/10 04:44:25;;;;;;;6.92;4.75;;;;;;;5.69;95.40;98558.73;1716941;81;21479;-68
2022/04/10 04:46:55;;;;;;;10.63;4.03;;;;;;;5.72;95.89;98558.11;1687130;82;21515;-67
2022/04/10 04:49:28;;;;;;;6.00;3.45;;;;;;;5.74;95.67;98562.14;1708770;81;21546;-67
2022/04/10 04:52:02;;;;;;;8.58;4.08;;;;;;;5.79;95.76;98560.63;1732235;81;20879;-67
2022/04/10 04:54:34;;;;;;;7.47;4.08;;;;;;;5.86;95.90;98571.10;1663615;83;21403;-68
2022/04/10 04:57:01;;;;;;;6.25;4.10;;;;;;;5.87;94.91;98562.63;1711745;83;20939;-68
2022/04/10 04:59:37;;;;;;;5.00;3.75;;;;;;;5.89;95.25;98571.32;1710949;81;21380;-68
2022/04/10 05:02:08;;;;;;;7.78;4.62;;;;;;;5.94;95.07;98578.02;1698212;82;20975;-68
2022/04/10 05:04:42;;;;;;;8.40;4.28;;;;;;;5.89;94.36;98575.41;1711763;82;21510;-68
2022/04/10 05:07:16;;;;;;;6.58;4.20;;;;;;;5.89;94.36;98575.41;1702578;81;21405;-68
2022/04/10 05:09:50;;;;;;;5.30;4.00;;;;;;;5.95;95.22;98578.81;1712223;83;20954;-68
2022/04/10 05:12:26;;;;;;;6.83;4.50;;;;;;;6.02;95.10;98580.55;1690039;83;21484;-68
2022/04/10 05:14:57;;;;;;;6.20;4.00;;;;;;;6.05;94.67;98586.75;1714339;83;21118;-67
2022/04/10 05:17:33;;;;;;;6.87;4.30;;;;;;;6.11;94.01;98596.97;1684840;83;20915;-66
2022/04/10 05:20:05;;;;;;;5.80;3.65;;;;;;;6.11;93.80;98597.77;1698054;83;21550;-66
2022/04/10 05:22:36;;;;;;;6.03;4.03;;;;;;;6.11;93.50;98599.70;1696778;83;20923;-67
2022/04/10 05:25:06;;;;;;;6.55;3.92;;;;;;;6.13;93.64;98608.36;1703066;83;20967;-66
2022/04/10 05:27:36;;;;;;;6.53;3.85;;;;;;;6.14;93.80;98609.42;1709287;82;20979;-70
2022/04/10 05:30:04;;;;;;;7.83;4.17;;;;;;;6.13;93.53;98615.17;1735595;81;21495;-80
2022/04/10 05:32:32;;;;;;;6.75;3.98;;;;;;;6.14;93.51;98618.16;1715381;82;21014;-81
2022/04/10 05:34:58;;;;;;;6.20;3.70;;;;;;;6.17;93.65;98618.89;1725158;82;21023;-76
2022/04/10 05:37:26;;;;;;;8.13;3.92;;;;;;;6.24;93.40;98615.19;1731214;81;20976;-77
2022/04/10 05:39:54;;;;;;;6.80;4.35;;;;;;;6.24;93.11;98620.64;1704065;82;21169;-74
2022/04/10 05:42:22;;;;;;;6.70;3.95;;;;;;;6.22;92.57;98618.77;1709014;81;20849;-68
2022/04/10 05:44:49;;;;;;;5.80;4.20;;;;;;;6.19;92.57;98616.67;1735179;82;21011;-69
2022/04/10 05:47:16;;;;;;;6.83;5.00;;;;;;;6.17;92.79;98617.53;1729005;82;20984;-68
2022/04/10 05:49:44;;;;;;;7.12;3.92;;;;;;;6.19;93.00;98627.57;1711018;82;20984;-68
2022/04/10 05:52:11;;;;;;;7.97;4.67;;;;;;;6.22;93.32;98628.31;1714936;82;21814;-66
2022/04/10 05:54:38;;;;;;;5.80;4.15;;;;;;;6.23;92.95;98623.92;1747197;81;20919;-67
2022/04/10 05:57:05;;;;;;;9.75;4.67;;;;;;;6.25;93.04;98617.60;1734785;82;20944;-68
2022/04/10 05:59:32;;;;;;;8.40;4.40;;;;;;;6.31;93.18;98618.28;1720867;81;21411;-66
2022/04/10 06:01:59;;;;;;;9.43;4.40;;;;;;;6.41;93.28;98626.18;1705653;83;21003;-66
2022/04/10 06:04:26;;;;;;;7.42;4.62;;;;;;;6.48;92.37;98618.92;1717482;81;21158;-68
2022/04/10 06:06:53;;;;;;;10.00;4.42;;;;;;;6.49;91.75;98614.53;1725827;81;21010;-70
2022/04/10 06:09:26;;;;;;;8.33;3.75;;;;;;;6.49;91.63;98621.91;1705249;83;21073;-72
2022/04/10 06:11:54;;;;;;;9.93;4.75;;;;;;;6.51;91.28;98619.11;1727526;82;20944;-74
2022/04/10 06:14:24;;;;;;;6.17;4.28;;;;;;;6.47;91.03;98626.30;1705348;84;21439;-72
2022/04/10 06:16:51;;;;;;;7.37;3.98;;;;;;;6.48;91.34;98623.02;1731065;82;21866;-73
2022/04/10 06:19:20;;;;;;;10.48;5.58;;;;;;;6.52;91.21;98629.46;1740818;82;20912;-73
2022/04/10 06:21:48;;;;;;;7.00;4.45;;;;;;;6.55;91.43;98635.66;1720526;81;22186;-70
2022/04/10 06:24:15;;;;;;;11.22;5.67;;;;;;;6.57;91.35;98634.23;1709613;82;21507;-69
2022/04/10 06:26:46;;;;;;;8.88;4.78;;;;;;;6.61;91.53;98635.77;1720918;81;21015;-69
2022/04/10 06:29:13;;;;;;;7.70;4.45;;;;;;;6.68;90.65;98635.34;1723362;81;21277;-69
2022/04/10 06:31:43;;;;;;;8.35;4.45;;;;;;;6.70;90.96;98634.47;1712633;81;21094;-69
2022/04/10 06:34:10;;;;;;;6.72;3.80;;;;;;;6.73;90.84;98627.83;1720480;82;20996;-70
2022/04/10 06:36:40;;;;;;;7.90;4.17;;;;;;;6.77;90.62;98630.73;1709896;82;21051;-71
2022/04/10 06:39:09;;;;;;;8.00;4.37;;;;;;;6.83;90.66;98637.67;1732322;82;21109;-69
2022/04/10 06:41:38;;;;;;;10.55;5.10;;;;;;;6.88;90.73;98639.70;1714063;81;21050;-69
2022/04/10 06:44:06;;;;;;;8.70;4.40;;;;;;;6.95;90.37;98641.95;1754202;80;20968;-70
2022/04/10 06:46:36;;;;;;;6.03;4.78;;;;;;;6.99;89.73;98648.40;1759437;80;20857;-70
2022/04/10 06:49:05;;;;;;;6.25;4.45;;;;;;;7.02;89.30;98651.06;1760624;80;21466;-70
2022/04/10 06:51:32;;;;;;;9.75;4.22;;;;;;;7.03;88.52;98649.38;1762502;80;21420;-70
2022/04/10 06:54:00;;;;;;;6.75;3.80;;;;;;;7.07;88.70;98655.02;1744423;81;22578;-71
2022/04/10 06:56:26;;;;;;;6.62;4.17;;;;;;;7.08;88.39;98659.36;1752301;81;20924;-70
2022/04/10 06:58:53;;;;;;;8.28;4.15;;;;;;;7.08;88.28;98657.99;1759513;80;21519;-70
2022/04/10 07:01:20;;;;;;;8.80;4.33;;;;;;;7.09;88.14;98669.95;1754012;80;21075;-70
2022/04/10 07:03:48;;;;;;;6.90;3.87;;;;;;;7.10;87.98;98664.75;1762391;80;20880;-70
2022/04/10 07:06:16;;;;;;;11.10;4.33;;;;;;;7.09;87.61;98674.05;1752039;81;21255;-71
2022/04/10 07:08:46;;;;;;;10.03;4.95;;;;;;;7.09;87.71;98669.95;1762944;81;20932;-70
2022/04/10 07:11:14;;;;;;;10.93;5.25;;;;;;;7.07;87.38;98682.31;1714978;81;21064;-70
2022/04/10 07:13:41;;;;;;;13.15;5.28;;;;;;;7.06;87.51;98681.50;1708856;82;20999;-70
2022/04/10 07:16:09;;;;;;;8.10;4.67;;;;;;;7.07;87.72;98685.84;1720605;80;21046;-69
2022/04/10 07:18:37;;;;;;;9.05;5.17;;;;;;;7.10;87.37;98689.87;1732646;80;21061;-70
2022/04/10 07:21:07;;;;;;;8.45;4.50;;;;;;;7.14;87.78;98697.67;1708641;81;20988;-70
2022/04/10 07:23:42;;;;;;;11.03;6.62;;;;;;;7.16;87.57;98698.97;1727305;81;20932;-70
2022/04/10 07:26:14;;;;;;;6.37;4.58;;;;;;;7.25;89.12;98703.92;1740744;81;21479;-69
2022/04/10 07:28:42;;;;;;;8.60;5.17;;;;;;;7.40;88.54;98703.26;1715257;81;21009;-71
2022/04/10 07:31:10;;;;;;;10.32;4.78;;;;;;;7.46;86.90;98706.09;1699772;82;21159;-71
2022/04/10 07:33:37;;;;;;;11.03;5.00;;;;;;;7.46;85.62;98708.27;1697220;83;21506;-70
2022/04/10 07:36:10;;;;;;;10.55;4.65;;;;;;;7.42;85.86;98711.38;1714230;81;21233;-70
2022/04/10 07:38:41;;;;;;;7.72;4.53;;;;;;;7.39;86.01;98713.94;1705138;82;20908;-69
2022/04/10 07:41:17;;;;;;;7.60;4.80;;;;;;;7.42;85.79;98722.86;1707362;82;20968;-69
2022/04/10 07:43:50;;;;;;;7.42;4.55;;;;;;;7.43;85.74;98719.02;1703737;83;21028;-69
2022/04/10 07:49:14;;;;;;;6.25;5.00;;;;;;;7.53;85.17;98722.24;1727682;82;21439;-70
2022/04/10 07:51:50;;;;;;;9.25;4.78;;;;;;;7.59;85.97;98718.81;1691138;81;21019;-70
2022/04/10 07:54:20;;;;;;;7.80;4.35;;;;;;;7.65;84.70;98720.84;1684361;82;20932;-70
2022/04/10 07:56:49;;;;;;;7.55;4.75;;;;;;;7.70;84.32;98717.96;1709902;82;21267;-70
2022/04/10 07:59:19;;;;;;;7.17;4.50;;;;;;;7.74;83.85;98718.94;1731319;81;21049;-70
2022/04/10 08:01:48;;;;;;;10.43;5.10;;;;;;;7.70;82.73;98730.26;1746411;80;20873;-69
2022/04/10 08:04:17;;;;;;;9.40;4.90;;;;;;;7.69;83.99;98732.75;1755596;80;20984;-71
2022/04/10 08:06:49;;;;;;;8.93;4.57;;;;;;;7.78;84.09;98735.75;1751430;81;20988;-74
2022/04/10 08:09:18;;;;;;;11.18;5.53;;;;;;;7.86;83.18;98721.31;1760299;81;21330;-76
2022/04/10 08:11:47;;;;;;;10.82;5.40;;;;;;;7.80;82.08;98719.84;1735257;80;21550;-68
2022/04/10 08:14:19;;;;;;;9.33;4.25;;;;;;;7.72;82.32;98714.36;1702106;83;20947;-71
2022/04/10 08:16:53;;;;;;;7.40;4.25;;;;;;;7.68;82.93;98716.91;1690406;83;20897;-71
2022/04/10 08:19:27;;;;;;;;;;;;;;;7.68;82.61;98722.38;1707351;83;20864;-73
2022/04/10 08:21:59;;;;;;;7.28;3.70;;;;;;;7.66;83.56;98726.55;1695853;82;20129;-71
2022/04/10 08:24:27;;;;;;;9.50;4.80;;;;;;;7.65;84.46;98719.47;1713981;81;21431;-72
2022/04/10 08:27:02;;;;;;;12.05;5.20;;;;;;;7.71;84.09;98718.20;1683619;83;21096;-73
2022/04/10 08:29:33;;;;;;;6.83;5.22;;;;;;;7.73;84.62;98723.59;1711370;83;20990;-73
2022/04/10 08:32:05;;;;;;;9.15;4.80;;;;;;;7.80;85.11;98722.58;1710723;83;21581;-74
2022/04/10 08:34:34;;;;;;;9.35;5.20;;;;;;;7.88;85.88;98727.27;1712521;83;21135;-73
2022/04/10 08:37:05;;;;;;;5.12;3.75;;;;;;;7.97;85.55;98718.28;1713229;83;20911;-76
2022/04/10 08:39:35;;;;;;;6.58;4.30;;;;;;;8.03;85.38;98717.81;1711482;83;21010;-77
2022/04/10 08:42:12;;;;;;;5.90;4.15;;;;;;;8.11;84.45;98722.46;1713234;83;26688;-75
2022/04/10 08:44:41;;;;;;;7.50;4.17;;;;;;;8.21;84.54;98724.89;1706916;83;20900;-72
2022/04/10 08:47:16;;;;;;;10.15;4.83;;;;;;;8.30;84.20;98722.17;1712402;83;21088;-73
2022/04/10 08:49:48;;;;;;;7.50;4.50;;;;;;;8.33;83.17;98734.42;1713416;83;21134;-76
2022/04/10 08:52:24;;;;;;;12.43;4.62;;;;;;;8.26;83.04;98728.84;1712033;83;20979;-70
2022/04/10 08:54:56;;;;;;;7.10;4.70;;;;;;;8.23;82.64;98728.67;1712188;83;21003;-72
2022/04/10 08:57:25;;;;;;;6.95;4.60;;;;;;;8.27;83.23;98732.38;1713593;83;20951;-73
2022/04/10 09:00:07;;;;;;;7.78;4.60;;;;;;;8.32;83.49;98739.62;1712202;83;21232;-69
2022/04/10 09:02:47;;;;;;;8.53;4.47;;;;;;;8.28;83.91;98733.42;1716818;83;20962;-72
2022/04/10 09:05:20;;;;;;;6.12;4.08;;;;;;;8.25;84.01;98730.52;1710349;83;21051;-73
2022/04/10 09:08:19;;;;;;;6.12;4.12;;;;;;;8.23;83.46;98730.04;1707833;82;20915;-72
2022/04/10 09:11:03;;;;;;;4.97;3.55;;;;;;;8.16;81.95;98726.97;1713154;83;20993;-71
2022/04/10 09:13:48;;;;;;;4.12;3.22;;;;;;;8.05;81.82;98728.43;1712145;82;21002;-72
2022/04/10 09:16:22;;;;;;;6.58;3.98;;;;;;;8.06;81.18;98737.67;1711010;83;20943;-71
2022/04/10 09:19:10;;;;;;;5.75;3.70;;;;;;;8.06;81.92;98735.50;1713898;83;21541;-72
2022/04/10 09:21:44;;;;;;;9.78;4.97;;;;;;;8.04;82.83;98744.59;1715929;83;20990;-72
2022/04/10 09:24:24;;;;;;;8.05;4.40;;;;;;;7.99;83.66;98741.44;1711642;82;20903;-73
2022/04/10 09:26:56;;;;;;;6.65;4.30;;;;;;;7.95;82.93;98744.56;1708254;83;21223;-72
2022/04/10 09:29:29;;;;;;;10.35;5.12;;;;;;;7.88;84.03;98744.22;1710281;83;21015;-72
2022/04/10 09:32:05;;;;;;;8.83;4.97;;;;;;;7.81;83.37;98744.68;1710142;83;20982;-72
2022/04/10 09:34:40;;;;;;;7.25;4.65;;;;;;;7.69;83.69;98748.58;1684200;83;21542;-71
2022/04/10 09:37:16;;;;;;;7.28;4.53;;;;;;;7.60;84.75;98745.81;1688517;83;20912;-72
2022/04/10 09:39:46;;;;;;;9.55;4.60;;;;;;;7.55;85.14;98758.80;1689654;83;21147;-73
2022/04/10 09:42:20;;;;;;;9.75;6.28;;;;;;;7.50;86.49;98752.14;1711570;82;21479;-73
2022/04/10 09:44:54;;;;;;;11.85;5.62;;;;;;;7.49;87.49;98754.62;1710727;83;20995;-73
2022/04/10 09:47:29;;;;;;;10.55;5.10;;;;;;;7.47;88.06;98754.94;1714345;82;20935;-72
2022/04/10 09:50:07;;;;;;;8.05;5.25;;;;;;;7.49;87.81;98755.98;1691111;83;20939;-73
2022/04/10 09:52:45;;;;;;;11.88;4.42;;;;;;;7.51;86.77;98753.75;1710632;83;21485;-72
2022/04/10 09:55:40;;;;;;;6.35;4.60;;;;;;;7.52;86.46;98748.50;1689531;83;21649;-72
2022/04/10 09:58:13;;;;;;;10.35;5.50;;;;;;;7.50;86.32;98754.87;1714203;83;21592;-72
2022/04/10 10:00:45;;;;;;;7.67;4.45;;;;;;;7.47;86.75;98752.77;1714067;83;21137;-72
2022/04/10 10:03:20;;;;;;;11.18;4.97;;;;;;;7.48;86.60;98754.38;1712120;83;21351;-73
2022/04/10 10:05:54;;;;;;;9.20;5.55;;;;;;;7.46;86.83;98759.34;1714251;83;21232;-73
2022/04/10 10:08:24;;;;;;;8.55;5.05;;;;;;;7.44;87.01;98769.22;1712652;82;20911;-72
2022/04/10 10:10:53;;;;;;;8.78;4.92;;;;;;;7.43;84.73;98768.17;1712849;83;21051;-73
2022/04/10 10:13:26;;;;;;;7.90;5.42;;;;;;;7.37;83.93;98772.16;1710677;83;20903;-73
2022/04/10 10:15:58;;;;;;;13.65;7.37;;;;;;;7.32;85.27;98778.55;1690413;83;21014;-73
2022/04/10 10:18:33;;;;;;;23.18;13.62;;;;;;;7.23;85.89;98771.67;1711977;83;21164;-72
2022/04/10 10:21:10;;;;;;;12.20;8.18;;;;;;;7.12;86.99;98776.34;1712481;83;21439;-73
2022/04/10 10:23:41;;;;;;;20.30;8.58;;;;;;;7.06;87.75;98771.56;1710991;83;20975;-73
2022/04/10 10:26:50;;;;;;;12.23;7.62;;;;;;;6.99;88.27;98776.66;1712339;82;21443;-73
2022/04/10 10:29:57;;;;;;;18.90;7.58;;;;;;;6.92;88.29;98782.57;1706227;82;21022;-73
2022/04/10 10:32:45;;;;;;;10.53;6.80;;;;;;;6.92;89.19;98779.04;1714172;83;20971;-72
2022/04/10 10:35:44;;;;;;;15.90;7.50;;;;;;;6.94;89.76;98784.96;1714724;83;21636;-74
2022/04/10 10:38:25;;;;;;;18.10;8.28;;;;;;;7.00;90.45;98786.45;1695569;83;21646;-73
2022/04/10 10:41:18;;;;;;;16.37;8.18;;;;;;;7.02;90.96;98784.77;1686477;83;21563;-75
2022/04/10 10:43:49;;;;;;;12.33;7.53;;;;;;;6.98;92.05;98783.22;1712598;83;20962;-75
2022/04/10 10:46:32;;;;;;;12.43;6.70;;;;;;;6.96;92.86;98786.82;1712970;82;21213;-73
2022/04/10 10:49:22;;;;;;;10.35;6.62;;;;;;;6.92;92.36;98776.31;1708140;81;21014;-74
2022/04/10 10:52:08;;;;;;;8.03;5.10;;;;;;;6.88;93.39;98779.41;1673153;84;21031;-75
2022/04/10 10:54:46;;;;;;;10.15;5.22;;;;;;;6.85;93.64;98783.56;1743912;81;21050;-74
2022/04/10 10:57:42;;;;;;;8.40;5.08;;;;;;;6.82;93.64;98788.83;1739338;80;21018;-73
2022/04/10 11:00:21;;;;;;;8.55;5.08;;;;;;;6.83;93.57;98783.63;1723982;80;21742;-72
2022/04/10 11:03:02;;;;;;;11.55;6.00;;;;;;;6.86;93.76;98783.00;1678289;81;21077;-73
2022/04/10 11:05:33;;;;;;;8.28;5.53;;;;;;;6.93;93.14;98780.65;1710436;82;21538;-73
2022/04/10 11:08:17;;;;;;;12.82;6.10;;;;;;;7.03;93.82;98785.02;1717743;80;21049;-74
2022/04/10 11:11:01;;;;;;;8.80;4.47;;;;;;;7.15;93.89;98779.25;1726033;82;20975;-77
2022/04/10 11:13:42;;;;;;;9.50;5.08;;;;;;;7.24;93.82;98776.02;1745061;80;21157;-70
2022/04/10 11:16:10;;;;;;;9.08;4.97;;;;;;;7.36;93.19;98780.09;1713341;82;21503;-73
2022/04/10 11:21:21;;;;;;;11.83;5.65;;;;;;;7.50;93.79;98780.81;1676041;84;21050;-68
2022/04/10 11:23:48;;;;;;;9.25;5.12;;;;;;;7.57;93.48;98781.14;1698338;83;21048;-73
2022/04/10 11:26:20;;;;;;;13.85;5.70;;;;;;;7.63;92.66;98786.72;1724384;82;21514;-72
2022/04/10 11:29:08;;;;;;;10.18;5.58;;;;;;;7.63;92.07;98789.44;1743277;81;21141;-73
2022/04/10 11:31:50;;;;;;;11.88;5.22;;;;;;;7.64;91.71;98792.42;1723558;83;20978;-73
2022/04/10 11:34:30;;;;;;;10.30;4.55;;;;;;;7.64;91.96;98793.79;1714734;81;20916;-74
2022/04/10 11:37:03;;;;;;;8.63;4.65;;;;;;;7.67;91.25;98799.98;1724013;81;20943;-72
2022/04/10 11:39:40;;;;;;;9.00;5.00;;;;;;;7.66;91.50;98794.28;1704782;82;20892;-67
2022/04/10 11:42:09;;;;;;;7.78;5.33;;;;;;;7.69;92.14;98792.84;1710095;82;20984;-71
2022/04/10 11:44:46;;;;;;;15.58;6.10;;;;;;;7.69;92.55;98791.48;1725742;81;20943;-69
2022/04/10 11:47:15;;;;;;;7.00;4.28;;;;;;;7.69;92.91;98789.55;1723845;81;21617;-71
2022/04/10 11:49:53;;;;;;;8.60;4.42;;;;;;;7.72;93.33;98792.22;1708240;82;21029;-70
2022/04/10 11:52:25;;;;;;;7.30;4.47;;;;;;;7.77;93.14;98787.98;1737549;81;21238;-68
2022/04/10 11:54:57;;;;;;;6.50;4.30;;;;;;;7.84;92.63;98781.50;1710613;81;21097;-70
2022/04/10 11:57:28;;;;;;;6.60;3.87;;;;;;;7.90;91.75;98784.34;1694742;82;21530;-67
2022/04/10 12:00:04;;;;;;;7.53;4.40;;;;;;;8.00;91.44;98776.41;1733938;82;20956;-67
2022/04/10 12:02:34;;;;;;;7.42;5.00;;;;;;;8.05;91.18;98772.16;1729382;81;20991;-67
2022/04/10 12:05:03;;;;;;;6.10;3.87;;;;;;;8.08;91.11;98775.06;1714776;81;21157;-66
2022/04/10 12:07:30;;;;;;;8.33;4.60;;;;;;;8.13;91.03;98776.25;1724137;82;21031;-67
2022/04/10 12:10:01;;;;;;;7.53;4.53;;;;;;;8.13;90.26;98784.45;1696320;82;20956;-67
2022/04/10 12:12:37;;;;;;;7.60;5.47;;;;;;;8.09;90.23;98777.20;1702122;83;20995;-72